sensor_id;sensor_type;location;lat;lon;timestamp;P1;durP1;ratioP1;P2;durP2;ratioP2
36009;SDS011;22076;52.182;5.404;2023-06-10T00:00:42;8.90;;;4.75;;
36009;SDS011;22076;52.182;5.404;2023-06-10T00:03:10;9.43;;;5.18;;
36009;SDS011;22076;52.182;5.404;2023-06-10T00:05:37;8.50;;;5.53;;
36009;SDS011;22076;52.182;5.404;2023-06-10T00:08:04;7.70;;;5.03;;
36009;SDS011;22076;52.182;5.404;2023-06-10T00:10:32;9.20;;;5.00;;
36009;SDS011;22076;52.182;5.404;2023-06-10T00:13:00;7.35;;;4.70;;
36009;SDS011;22076;52.182;5.404;2023-06-10T00:15:27;6.90;;;4.65;;
36009;SDS011;22076;52.182;5.404;2023-06-10T00:17:56;6.43;;;4.72;;
36009;SDS011;22076;52.182;5.404;2023-06-10T00:20:24;9.93;;;5.03;;
36009;SDS011;22076;52.182;5.404;2023-06-10T00:22:51;9.25;;;5.25;;
36009;SDS011;22076;52.182;5.404;2023-06-10T00:25:17;7.88;;;4.75;;
36009;SDS011;22076;52.182;5.404;2023-06-10T00:27:44;8.13;;;4.78;;
36009;SDS011;22076;52.182;5.404;2023-06-10T00:30:11;7.10;;;4.78;;
36009;SDS011;22076;52.182;5.404;2023-06-10T00:32:39;9.18;;;5.00;;
36009;SDS011;22076;52.182;5.404;2023-06-10T00:35:06;6.47;;;4.40;;
36009;SDS011;22076;52.182;5.404;2023-06-10T00:37:34;12.07;;;5.07;;
36009;SDS011;22076;52.182;5.404;2023-06-10T00:40:01;7.78;;;5.00;;
36009;SDS011;22076;52.182;5.404;2023-06-10T00:42:28;9.02;;;5.18;;
36009;SDS011;22076;52.182;5.404;2023-06-10T00:44:54;8.05;;;5.25;;
36009;SDS011;22076;52.182;5.404;2023-06-10T00:47:21;9.10;;;5.35;;
36009;SDS011;22076;52.182;5.404;2023-06-10T00:49:47;9.00;;;4.68;;
36009;SDS011;22076;52.182;5.404;2023-06-10T00:52:15;6.15;;;4.13;;
36009;SDS011;22076;52.182;5.404;2023-06-10T00:54:44;7.68;;;4.72;;
36009;SDS011;22076;52.182;5.404;2023-06-10T00:57:10;6.85;;;4.70;;
36009;SDS011;22076;52.182;5.404;2023-06-10T00:59:39;7.03;;;4.88;;
36009;SDS011;22076;52.182;5.404;2023-06-10T01:02:06;7.18;;;4.72;;
36009;SDS011;22076;52.182;5.404;2023-06-10T01:04:32;8.20;;;4.60;;
36009;SDS011;22076;52.182;5.404;2023-06-10T01:07:00;7.72;;;4.32;;
36009;SDS011;22076;52.182;5.404;2023-06-10T01:12:01;5.50;;;3.97;;
36009;SDS011;22076;52.182;5.404;2023-06-10T01:14:34;7.40;;;4.20;;
36009;SDS011;22076;52.182;5.404;2023-06-10T01:17:01;7.30;;;4.63;;
36009;SDS011;22076;52.182;5.404;2023-06-10T01:19:29;9.80;;;4.70;;
36009;SDS011;22076;52.182;5.404;2023-06-10T01:21:57;6.63;;;4.10;;
36009;SDS011;22076;52.182;5.404;2023-06-10T01:24:25;8.20;;;4.60;;
36009;SDS011;22076;52.182;5.404;2023-06-10T01:26:52;9.07;;;4.57;;
36009;SDS011;22076;52.182;5.404;2023-06-10T01:29:20;7.70;;;4.93;;
36009;SDS011;22076;52.182;5.404;2023-06-10T01:31:51;9.30;;;5.03;;
36009;SDS011;22076;52.182;5.404;2023-06-10T01:34:21;8.45;;;4.43;;
36009;SDS011;22076;52.182;5.404;2023-06-10T01:36:49;9.63;;;4.72;;
36009;SDS011;22076;52.182;5.404;2023-06-10T01:39:19;10.65;;;5.72;;
36009;SDS011;22076;52.182;5.404;2023-06-10T01:41:47;5.25;;;3.63;;
36009;SDS011;22076;52.182;5.404;2023-06-10T01:44:17;6.95;;;4.50;;
36009;SDS011;22076;52.182;5.404;2023-06-10T01:46:43;9.52;;;5.53;;
36009;SDS011;22076;52.182;5.404;2023-06-10T01:49:10;8.20;;;5.18;;
36009;SDS011;22076;52.182;5.404;2023-06-10T01:51:36;6.55;;;4.40;;
36009;SDS011;22076;52.182;5.404;2023-06-10T01:54:03;10.00;;;5.68;;
36009;SDS011;22076;52.182;5.404;2023-06-10T01:56:31;7.93;;;4.90;;
36009;SDS011;22076;52.182;5.404;2023-06-10T01:58:58;10.75;;;5.30;;
36009;SDS011;22076;52.182;5.404;2023-06-10T02:01:25;9.93;;;4.72;;
36009;SDS011;22076;52.182;5.404;2023-06-10T02:03:51;4.93;;;3.83;;
36009;SDS011;22076;52.182;5.404;2023-06-10T02:06:18;8.75;;;4.78;;
36009;SDS011;22076;52.182;5.404;2023-06-10T02:08:44;7.30;;;4.60;;
36009;SDS011;22076;52.182;5.404;2023-06-10T02:11:11;9.05;;;4.80;;
36009;SDS011;22076;52.182;5.404;2023-06-10T02:13:39;9.13;;;5.35;;
36009;SDS011;22076;52.182;5.404;2023-06-10T02:16:05;10.77;;;5.22;;
36009;SDS011;22076;52.182;5.404;2023-06-10T02:18:32;8.90;;;4.70;;
36009;SDS011;22076;52.182;5.404;2023-06-10T02:20:59;9.07;;;4.95;;
36009;SDS011;22076;52.182;5.404;2023-06-10T02:23:25;8.80;;;5.30;;
36009;SDS011;22076;52.182;5.404;2023-06-10T02:25:52;7.82;;;4.68;;
36009;SDS011;22076;52.182;5.404;2023-06-10T02:28:18;7.72;;;4.88;;
36009;SDS011;22076;52.182;5.404;2023-06-10T02:30:46;10.27;;;5.50;;
36009;SDS011;22076;52.182;5.404;2023-06-10T02:33:13;9.27;;;5.05;;
36009;SDS011;22076;52.182;5.404;2023-06-10T02:35:40;8.35;;;4.55;;
36009;SDS011;22076;52.182;5.404;2023-06-10T02:38:06;8.68;;;4.57;;
36009;SDS011;22076;52.182;5.404;2023-06-10T02:40:33;8.95;;;4.60;;
36009;SDS011;22076;52.182;5.404;2023-06-10T02:42:59;9.52;;;4.97;;
36009;SDS011;22076;52.182;5.404;2023-06-10T02:45:26;7.50;;;4.82;;
36009;SDS011;22076;52.182;5.404;2023-06-10T02:47:54;8.15;;;4.88;;
36009;SDS011;22076;52.182;5.404;2023-06-10T02:50:20;8.50;;;5.20;;
36009;SDS011;22076;52.182;5.404;2023-06-10T02:52:47;7.55;;;5.22;;
36009;SDS011;22076;52.182;5.404;2023-06-10T02:55:14;5.70;;;4.05;;
36009;SDS011;22076;52.182;5.404;2023-06-10T02:57:41;7.22;;;4.57;;
36009;SDS011;22076;52.182;5.404;2023-06-10T03:00:08;8.95;;;4.97;;
36009;SDS011;22076;52.182;5.404;2023-06-10T03:02:36;9.27;;;4.78;;
36009;SDS011;22076;52.182;5.404;2023-06-10T03:05:05;6.68;;;4.60;;
36009;SDS011;22076;52.182;5.404;2023-06-10T03:07:35;7.03;;;4.07;;
36009;SDS011;22076;52.182;5.404;2023-06-10T03:10:02;6.95;;;4.85;;
36009;SDS011;22076;52.182;5.404;2023-06-10T03:12:29;8.77;;;5.05;;
36009;SDS011;22076;52.182;5.404;2023-06-10T03:14:55;9.23;;;5.90;;
36009;SDS011;22076;52.182;5.404;2023-06-10T03:17:22;7.47;;;5.13;;
36009;SDS011;22076;52.182;5.404;2023-06-10T03:19:48;12.60;;;5.90;;
36009;SDS011;22076;52.182;5.404;2023-06-10T03:22:16;8.13;;;5.30;;
36009;SDS011;22076;52.182;5.404;2023-06-10T03:24:43;6.13;;;4.57;;
36009;SDS011;22076;52.182;5.404;2023-06-10T03:27:11;9.77;;;4.57;;
36009;SDS011;22076;52.182;5.404;2023-06-10T03:29:38;9.80;;;4.47;;
36009;SDS011;22076;52.182;5.404;2023-06-10T03:32:05;7.88;;;5.20;;
36009;SDS011;22076;52.182;5.404;2023-06-10T03:34:32;7.03;;;4.85;;
36009;SDS011;22076;52.182;5.404;2023-06-10T03:36:59;10.55;;;6.05;;
36009;SDS011;22076;52.182;5.404;2023-06-10T03:39:26;5.70;;;4.25;;
36009;SDS011;22076;52.182;5.404;2023-06-10T03:41:54;10.43;;;5.88;;
36009;SDS011;22076;52.182;5.404;2023-06-10T03:44:20;9.23;;;6.03;;
36009;SDS011;22076;52.182;5.404;2023-06-10T03:46:47;7.13;;;4.18;;
36009;SDS011;22076;52.182;5.404;2023-06-10T03:49:13;7.65;;;5.63;;
36009;SDS011;22076;52.182;5.404;2023-06-10T03:51:40;10.88;;;5.38;;
36009;SDS011;22076;52.182;5.404;2023-06-10T03:54:06;7.43;;;4.75;;
36009;SDS011;22076;52.182;5.404;2023-06-10T03:56:34;11.00;;;5.28;;
36009;SDS011;22076;52.182;5.404;2023-06-10T03:59:01;9.40;;;5.70;;
36009;SDS011;22076;52.182;5.404;2023-06-10T04:01:27;9.45;;;5.90;;
36009;SDS011;22076;52.182;5.404;2023-06-10T04:03:54;8.13;;;5.07;;
36009;SDS011;22076;52.182;5.404;2023-06-10T04:06:21;10.27;;;4.90;;
36009;SDS011;22076;52.182;5.404;2023-06-10T04:08:50;9.00;;;5.45;;
36009;SDS011;22076;52.182;5.404;2023-06-10T04:11:17;10.88;;;5.78;;
36009;SDS011;22076;52.182;5.404;2023-06-10T04:13:44;6.47;;;4.97;;
36009;SDS011;22076;52.182;5.404;2023-06-10T04:16:11;6.15;;;4.75;;
36009;SDS011;22076;52.182;5.404;2023-06-10T04:18:37;8.32;;;5.28;;
36009;SDS011;22076;52.182;5.404;2023-06-10T04:21:04;10.70;;;6.18;;
36009;SDS011;22076;52.182;5.404;2023-06-10T04:23:31;13.40;;;5.28;;
36009;SDS011;22076;52.182;5.404;2023-06-10T04:25:57;9.77;;;5.80;;
36009;SDS011;22076;52.182;5.404;2023-06-10T04:28:24;12.27;;;5.18;;
36009;SDS011;22076;52.182;5.404;2023-06-10T04:30:52;9.52;;;5.40;;
36009;SDS011;22076;52.182;5.404;2023-06-10T04:33:19;11.30;;;6.45;;
36009;SDS011;22076;52.182;5.404;2023-06-10T04:35:45;7.10;;;4.63;;
36009;SDS011;22076;52.182;5.404;2023-06-10T04:38:12;8.65;;;5.20;;
36009;SDS011;22076;52.182;5.404;2023-06-10T04:40:39;6.85;;;4.78;;
36009;SDS011;22076;52.182;5.404;2023-06-10T04:43:06;9.05;;;4.85;;
36009;SDS011;22076;52.182;5.404;2023-06-10T04:45:32;9.05;;;5.80;;
36009;SDS011;22076;52.182;5.404;2023-06-10T04:48:00;10.38;;;5.82;;
36009;SDS011;22076;52.182;5.404;2023-06-10T04:50:28;13.40;;;6.05;;
36009;SDS011;22076;52.182;5.404;2023-06-10T04:52:55;8.02;;;5.03;;
36009;SDS011;22076;52.182;5.404;2023-06-10T04:55:22;13.32;;;6.47;;
36009;SDS011;22076;52.182;5.404;2023-06-10T04:57:49;12.88;;;6.75;;
36009;SDS011;22076;52.182;5.404;2023-06-10T05:00:16;9.88;;;5.20;;
36009;SDS011;22076;52.182;5.404;2023-06-10T05:02:43;9.88;;;5.63;;
36009;SDS011;22076;52.182;5.404;2023-06-10T05:05:11;9.98;;;5.63;;
36009;SDS011;22076;52.182;5.404;2023-06-10T05:07:38;7.97;;;5.35;;
36009;SDS011;22076;52.182;5.404;2023-06-10T05:10:04;9.43;;;6.28;;
36009;SDS011;22076;52.182;5.404;2023-06-10T05:12:32;12.27;;;5.68;;
36009;SDS011;22076;52.182;5.404;2023-06-10T05:14:58;12.00;;;6.07;;
36009;SDS011;22076;52.182;5.404;2023-06-10T05:17:25;14.32;;;6.85;;
36009;SDS011;22076;52.182;5.404;2023-06-10T05:19:53;14.07;;;6.55;;
36009;SDS011;22076;52.182;5.404;2023-06-10T05:22:22;11.30;;;6.15;;
36009;SDS011;22076;52.182;5.404;2023-06-10T05:24:49;11.93;;;6.75;;
36009;SDS011;22076;52.182;5.404;2023-06-10T05:27:16;11.05;;;6.15;;
36009;SDS011;22076;52.182;5.404;2023-06-10T05:29:43;13.55;;;6.57;;
36009;SDS011;22076;52.182;5.404;2023-06-10T05:32:10;10.80;;;6.15;;
36009;SDS011;22076;52.182;5.404;2023-06-10T05:34:37;13.20;;;7.00;;
36009;SDS011;22076;52.182;5.404;2023-06-10T05:37:04;12.90;;;6.47;;
36009;SDS011;22076;52.182;5.404;2023-06-10T05:39:32;13.40;;;5.97;;
36009;SDS011;22076;52.182;5.404;2023-06-10T05:42:02;10.63;;;6.70;;
36009;SDS011;22076;52.182;5.404;2023-06-10T05:44:29;10.13;;;6.47;;
36009;SDS011;22076;52.182;5.404;2023-06-10T05:46:55;10.13;;;5.90;;
36009;SDS011;22076;52.182;5.404;2023-06-10T05:49:22;8.30;;;5.78;;
36009;SDS011;22076;52.182;5.404;2023-06-10T05:51:49;14.77;;;6.47;;
36009;SDS011;22076;52.182;5.404;2023-06-10T05:54:18;9.85;;;6.35;;
36009;SDS011;22076;52.182;5.404;2023-06-10T05:56:46;9.48;;;6.00;;
36009;SDS011;22076;52.182;5.404;2023-06-10T05:59:12;11.98;;;6.03;;
36009;SDS011;22076;52.182;5.404;2023-06-10T06:01:39;8.60;;;5.30;;
36009;SDS011;22076;52.182;5.404;2023-06-10T06:04:05;12.45;;;6.63;;
36009;SDS011;22076;52.182;5.404;2023-06-10T06:06:33;12.02;;;7.07;;
36009;SDS011;22076;52.182;5.404;2023-06-10T06:09:01;10.80;;;6.32;;
36009;SDS011;22076;52.182;5.404;2023-06-10T06:11:28;12.93;;;6.28;;
36009;SDS011;22076;52.182;5.404;2023-06-10T06:13:55;13.85;;;6.88;;
36009;SDS011;22076;52.182;5.404;2023-06-10T06:16:22;10.73;;;5.60;;
36009;SDS011;22076;52.182;5.404;2023-06-10T06:18:49;10.05;;;6.03;;
36009;SDS011;22076;52.182;5.404;2023-06-10T06:21:15;10.70;;;5.95;;
36009;SDS011;22076;52.182;5.404;2023-06-10T06:23:42;12.38;;;6.47;;
36009;SDS011;22076;52.182;5.404;2023-06-10T06:26:08;11.32;;;6.85;;
36009;SDS011;22076;52.182;5.404;2023-06-10T06:28:35;9.38;;;6.18;;
36009;SDS011;22076;52.182;5.404;2023-06-10T06:31:03;11.60;;;5.72;;
36009;SDS011;22076;52.182;5.404;2023-06-10T06:33:29;13.18;;;6.72;;
36009;SDS011;22076;52.182;5.404;2023-06-10T06:35:56;12.75;;;6.70;;
36009;SDS011;22076;52.182;5.404;2023-06-10T06:38:22;10.38;;;6.63;;
36009;SDS011;22076;52.182;5.404;2023-06-10T06:40:49;12.88;;;6.03;;
36009;SDS011;22076;52.182;5.404;2023-06-10T06:43:16;7.47;;;5.50;;
36009;SDS011;22076;52.182;5.404;2023-06-10T06:45:43;9.98;;;5.50;;
36009;SDS011;22076;52.182;5.404;2023-06-10T06:48:11;13.52;;;6.93;;
36009;SDS011;22076;52.182;5.404;2023-06-10T06:50:38;7.38;;;5.07;;
36009;SDS011;22076;52.182;5.404;2023-06-10T06:53:06;11.43;;;6.25;;
36009;SDS011;22076;52.182;5.404;2023-06-10T06:55:33;11.82;;;5.53;;
36009;SDS011;22076;52.182;5.404;2023-06-10T06:57:59;11.20;;;6.63;;
36009;SDS011;22076;52.182;5.404;2023-06-10T07:00:28;11.35;;;6.22;;
36009;SDS011;22076;52.182;5.404;2023-06-10T07:02:55;9.15;;;5.80;;
36009;SDS011;22076;52.182;5.404;2023-06-10T07:05:23;11.27;;;6.07;;
36009;SDS011;22076;52.182;5.404;2023-06-10T07:07:51;12.40;;;6.43;;
36009;SDS011;22076;52.182;5.404;2023-06-10T07:10:20;11.40;;;5.90;;
36009;SDS011;22076;52.182;5.404;2023-06-10T07:12:47;10.20;;;6.53;;
36009;SDS011;22076;52.182;5.404;2023-06-10T07:15:13;8.25;;;4.90;;
36009;SDS011;22076;52.182;5.404;2023-06-10T07:17:40;11.27;;;5.65;;
36009;SDS011;22076;52.182;5.404;2023-06-10T07:20:07;7.45;;;5.00;;
36009;SDS011;22076;52.182;5.404;2023-06-10T07:22:35;14.63;;;7.60;;
36009;SDS011;22076;52.182;5.404;2023-06-10T07:25:04;9.18;;;4.78;;
36009;SDS011;22076;52.182;5.404;2023-06-10T07:27:31;13.48;;;6.53;;
36009;SDS011;22076;52.182;5.404;2023-06-10T07:29:57;12.02;;;6.20;;
36009;SDS011;22076;52.182;5.404;2023-06-10T07:32:25;8.73;;;5.22;;
36009;SDS011;22076;52.182;5.404;2023-06-10T07:34:52;8.13;;;4.78;;
36009;SDS011;22076;52.182;5.404;2023-06-10T07:37:18;7.10;;;4.88;;
36009;SDS011;22076;52.182;5.404;2023-06-10T07:39:47;13.80;;;5.90;;
36009;SDS011;22076;52.182;5.404;2023-06-10T07:42:13;13.75;;;6.40;;
36009;SDS011;22076;52.182;5.404;2023-06-10T07:44:40;8.20;;;5.45;;
36009;SDS011;22076;52.182;5.404;2023-06-10T07:47:06;6.57;;;5.00;;
36009;SDS011;22076;52.182;5.404;2023-06-10T07:49:33;10.07;;;6.05;;
36009;SDS011;22076;52.182;5.404;2023-06-10T07:51:59;10.20;;;4.95;;
36009;SDS011;22076;52.182;5.404;2023-06-10T07:54:25;10.55;;;5.50;;
36009;SDS011;22076;52.182;5.404;2023-06-10T07:56:53;10.15;;;5.88;;
36009;SDS011;22076;52.182;5.404;2023-06-10T07:59:20;7.60;;;5.65;;
36009;SDS011;22076;52.182;5.404;2023-06-10T08:01:46;7.68;;;5.63;;
36009;SDS011;22076;52.182;5.404;2023-06-10T08:04:13;8.18;;;5.93;;
36009;SDS011;22076;52.182;5.404;2023-06-10T08:06:39;7.60;;;4.82;;
36009;SDS011;22076;52.182;5.404;2023-06-10T08:09:06;8.40;;;4.72;;
36009;SDS011;22076;52.182;5.404;2023-06-10T08:11:32;14.55;;;5.35;;
36009;SDS011;22076;52.182;5.404;2023-06-10T08:14:00;8.15;;;5.78;;
36009;SDS011;22076;52.182;5.404;2023-06-10T08:16:27;12.82;;;5.90;;
36009;SDS011;22076;52.182;5.404;2023-06-10T08:18:53;12.30;;;6.22;;
36009;SDS011;22076;52.182;5.404;2023-06-10T08:21:20;7.72;;;5.18;;
36009;SDS011;22076;52.182;5.404;2023-06-10T08:23:46;9.07;;;5.40;;
36009;SDS011;22076;52.182;5.404;2023-06-10T08:26:13;11.52;;;5.57;;
36009;SDS011;22076;52.182;5.404;2023-06-10T08:28:39;11.50;;;5.75;;
36009;SDS011;22076;52.182;5.404;2023-06-10T08:31:07;12.73;;;6.47;;
36009;SDS011;22076;52.182;5.404;2023-06-10T08:33:34;11.88;;;6.47;;
36009;SDS011;22076;52.182;5.404;2023-06-10T08:36:00;8.88;;;6.03;;
36009;SDS011;22076;52.182;5.404;2023-06-10T08:38:27;7.50;;;5.00;;
36009;SDS011;22076;52.182;5.404;2023-06-10T08:40:54;8.40;;;5.05;;
36009;SDS011;22076;52.182;5.404;2023-06-10T08:43:24;11.13;;;5.82;;
36009;SDS011;22076;52.182;5.404;2023-06-10T08:45:58;8.02;;;4.90;;
36009;SDS011;22076;52.182;5.404;2023-06-10T08:48:28;8.65;;;5.32;;
36009;SDS011;22076;52.182;5.404;2023-06-10T08:50:55;8.38;;;4.90;;
36009;SDS011;22076;52.182;5.404;2023-06-10T08:53:23;9.10;;;5.95;;
36009;SDS011;22076;52.182;5.404;2023-06-10T08:55:50;9.93;;;5.00;;
36009;SDS011;22076;52.182;5.404;2023-06-10T08:58:17;8.48;;;5.07;;
36009;SDS011;22076;52.182;5.404;2023-06-10T09:00:44;7.10;;;4.90;;
36009;SDS011;22076;52.182;5.404;2023-06-10T09:03:11;9.45;;;6.00;;
36009;SDS011;22076;52.182;5.404;2023-06-10T09:05:39;7.82;;;5.20;;
36009;SDS011;22076;52.182;5.404;2023-06-10T09:08:06;9.82;;;5.57;;
36009;SDS011;22076;52.182;5.404;2023-06-10T09:10:33;7.47;;;4.57;;
36009;SDS011;22076;52.182;5.404;2023-06-10T09:12:59;6.68;;;5.22;;
36009;SDS011;22076;52.182;5.404;2023-06-10T09:15:26;8.75;;;5.10;;
36009;SDS011;22076;52.182;5.404;2023-06-10T09:17:53;9.82;;;5.05;;
36009;SDS011;22076;52.182;5.404;2023-06-10T09:20:19;9.63;;;4.85;;
36009;SDS011;22076;52.182;5.404;2023-06-10T09:22:47;8.23;;;4.45;;
36009;SDS011;22076;52.182;5.404;2023-06-10T09:25:14;10.43;;;5.20;;
36009;SDS011;22076;52.182;5.404;2023-06-10T09:27:45;9.65;;;5.63;;
36009;SDS011;22076;52.182;5.404;2023-06-10T09:30:23;9.68;;;5.15;;
36009;SDS011;22076;52.182;5.404;2023-06-10T09:32:51;10.95;;;5.25;;
36009;SDS011;22076;52.182;5.404;2023-06-10T09:35:18;7.57;;;5.00;;
36009;SDS011;22076;52.182;5.404;2023-06-10T09:37:45;10.82;;;5.78;;
36009;SDS011;22076;52.182;5.404;2023-06-10T09:40:13;7.13;;;4.20;;
36009;SDS011;22076;52.182;5.404;2023-06-10T09:42:39;5.18;;;4.32;;
36009;SDS011;22076;52.182;5.404;2023-06-10T09:45:06;8.63;;;5.70;;
36009;SDS011;22076;52.182;5.404;2023-06-10T09:47:33;7.93;;;4.70;;
36009;SDS011;22076;52.182;5.404;2023-06-10T09:50:00;7.57;;;5.13;;
36009;SDS011;22076;52.182;5.404;2023-06-10T09:52:27;10.98;;;5.57;;
36009;SDS011;22076;52.182;5.404;2023-06-10T09:55:00;10.27;;;5.40;;
36009;SDS011;22076;52.182;5.404;2023-06-10T09:57:31;7.82;;;4.82;;
36009;SDS011;22076;52.182;5.404;2023-06-10T09:59:58;6.30;;;4.32;;
36009;SDS011;22076;52.182;5.404;2023-06-10T10:02:25;7.15;;;4.63;;
36009;SDS011;22076;52.182;5.404;2023-06-10T10:04:51;9.27;;;5.82;;
36009;SDS011;22076;52.182;5.404;2023-06-10T10:07:18;8.05;;;4.68;;
36009;SDS011;22076;52.182;5.404;2023-06-10T10:09:45;9.15;;;5.80;;
36009;SDS011;22076;52.182;5.404;2023-06-10T10:12:12;7.22;;;5.05;;
36009;SDS011;22076;52.182;5.404;2023-06-10T10:14:43;7.35;;;4.65;;
36009;SDS011;22076;52.182;5.404;2023-06-10T10:17:12;6.13;;;4.60;;
36009;SDS011;22076;52.182;5.404;2023-06-10T10:19:43;8.02;;;4.93;;
36009;SDS011;22076;52.182;5.404;2023-06-10T10:22:14;5.27;;;4.00;;
36009;SDS011;22076;52.182;5.404;2023-06-10T10:24:45;5.85;;;4.68;;
36009;SDS011;22076;52.182;5.404;2023-06-10T10:27:16;8.38;;;5.15;;
36009;SDS011;22076;52.182;5.404;2023-06-10T10:29:46;7.38;;;4.78;;
36009;SDS011;22076;52.182;5.404;2023-06-10T10:32:14;5.32;;;4.18;;
36009;SDS011;22076;52.182;5.404;2023-06-10T10:34:43;7.05;;;4.25;;
36009;SDS011;22076;52.182;5.404;2023-06-10T10:37:13;8.45;;;4.72;;
36009;SDS011;22076;52.182;5.404;2023-06-10T10:39:40;6.43;;;4.85;;
36009;SDS011;22076;52.182;5.404;2023-06-10T10:42:07;5.38;;;4.18;;
36009;SDS011;22076;52.182;5.404;2023-06-10T10:44:35;8.80;;;4.97;;
36009;SDS011;22076;52.182;5.404;2023-06-10T10:47:04;8.15;;;4.75;;
36009;SDS011;22076;52.182;5.404;2023-06-10T10:49:34;6.28;;;3.90;;
36009;SDS011;22076;52.182;5.404;2023-06-10T10:52:02;4.95;;;3.97;;
36009;SDS011;22076;52.182;5.404;2023-06-10T10:54:31;6.80;;;4.82;;
36009;SDS011;22076;52.182;5.404;2023-06-10T10:57:10;5.25;;;4.13;;
36009;SDS011;22076;52.182;5.404;2023-06-10T10:59:56;5.88;;;4.25;;
36009;SDS011;22076;52.182;5.404;2023-06-10T11:02:33;4.60;;;4.10;;
36009;SDS011;22076;52.182;5.404;2023-06-10T11:05:08;9.15;;;4.88;;
36009;SDS011;22076;52.182;5.404;2023-06-10T11:07:35;5.53;;;3.80;;
36009;SDS011;22076;52.182;5.404;2023-06-10T11:10:03;5.53;;;4.60;;
36009;SDS011;22076;52.182;5.404;2023-06-10T11:15:22;7.32;;;4.22;;
36009;SDS011;22076;52.182;5.404;2023-06-10T11:20:56;7.72;;;4.53;;
36009;SDS011;22076;52.182;5.404;2023-06-10T11:23:25;9.00;;;4.13;;
36009;SDS011;22076;52.182;5.404;2023-06-10T11:29:04;6.55;;;4.88;;
36009;SDS011;22076;52.182;5.404;2023-06-10T11:31:33;6.47;;;4.65;;
36009;SDS011;22076;52.182;5.404;2023-06-10T11:34:03;6.80;;;4.32;;
36009;SDS011;22076;52.182;5.404;2023-06-10T11:36:31;7.55;;;4.63;;
36009;SDS011;22076;52.182;5.404;2023-06-10T11:38:58;8.68;;;4.80;;
36009;SDS011;22076;52.182;5.404;2023-06-10T11:41:26;10.05;;;4.82;;
36009;SDS011;22076;52.182;5.404;2023-06-10T11:43:54;6.32;;;4.35;;
36009;SDS011;22076;52.182;5.404;2023-06-10T11:46:22;6.30;;;4.38;;
36009;SDS011;22076;52.182;5.404;2023-06-10T11:48:48;4.65;;;3.95;;
36009;SDS011;22076;52.182;5.404;2023-06-10T11:51:17;5.80;;;4.32;;
36009;SDS011;22076;52.182;5.404;2023-06-10T11:53:43;8.95;;;5.10;;
36009;SDS011;22076;52.182;5.404;2023-06-10T11:56:10;8.15;;;5.00;;
36009;SDS011;22076;52.182;5.404;2023-06-10T11:58:37;5.43;;;4.43;;
36009;SDS011;22076;52.182;5.404;2023-06-10T12:01:04;6.50;;;4.90;;
36009;SDS011;22076;52.182;5.404;2023-06-10T12:03:35;6.88;;;4.93;;
36009;SDS011;22076;52.182;5.404;2023-06-10T12:06:02;6.43;;;4.63;;
36009;SDS011;22076;52.182;5.404;2023-06-10T12:08:32;8.63;;;4.65;;
36009;SDS011;22076;52.182;5.404;2023-06-10T12:10:59;5.55;;;4.53;;
36009;SDS011;22076;52.182;5.404;2023-06-10T12:13:26;6.75;;;4.72;;
36009;SDS011;22076;52.182;5.404;2023-06-10T12:15:53;6.72;;;4.57;;
36009;SDS011;22076;52.182;5.404;2023-06-10T12:18:20;6.97;;;4.22;;
36009;SDS011;22076;52.182;5.404;2023-06-10T12:20:47;7.28;;;4.47;;
36009;SDS011;22076;52.182;5.404;2023-06-10T12:23:15;6.50;;;4.50;;
36009;SDS011;22076;52.182;5.404;2023-06-10T12:25:50;5.82;;;4.75;;
36009;SDS011;22076;52.182;5.404;2023-06-10T12:28:20;6.53;;;4.50;;
36009;SDS011;22076;52.182;5.404;2023-06-10T12:30:47;7.85;;;4.32;;
36009;SDS011;22076;52.182;5.404;2023-06-10T12:33:16;6.20;;;4.55;;
36009;SDS011;22076;52.182;5.404;2023-06-10T12:35:46;7.15;;;5.18;;
36009;SDS011;22076;52.182;5.404;2023-06-10T12:38:14;7.88;;;5.43;;
36009;SDS011;22076;52.182;5.404;2023-06-10T12:40:40;7.85;;;4.75;;
36009;SDS011;22076;52.182;5.404;2023-06-10T12:43:08;9.82;;;4.90;;
36009;SDS011;22076;52.182;5.404;2023-06-10T12:45:36;7.45;;;5.20;;
36009;SDS011;22076;52.182;5.404;2023-06-10T12:48:05;6.97;;;4.65;;
36009;SDS011;22076;52.182;5.404;2023-06-10T12:50:34;6.40;;;4.75;;
36009;SDS011;22076;52.182;5.404;2023-06-10T12:53:02;5.88;;;4.40;;
36009;SDS011;22076;52.182;5.404;2023-06-10T12:55:28;6.53;;;4.75;;
36009;SDS011;22076;52.182;5.404;2023-06-10T12:57:55;7.18;;;5.10;;
36009;SDS011;22076;52.182;5.404;2023-06-10T13:00:23;7.70;;;4.32;;
36009;SDS011;22076;52.182;5.404;2023-06-10T13:02:53;6.45;;;4.38;;
36009;SDS011;22076;52.182;5.404;2023-06-10T13:05:20;7.03;;;4.63;;
36009;SDS011;22076;52.182;5.404;2023-06-10T13:07:46;7.22;;;5.00;;
36009;SDS011;22076;52.182;5.404;2023-06-10T13:10:13;6.10;;;4.90;;
36009;SDS011;22076;52.182;5.404;2023-06-10T13:12:39;7.03;;;5.03;;
36009;SDS011;22076;52.182;5.404;2023-06-10T13:15:06;5.68;;;4.40;;
36009;SDS011;22076;52.182;5.404;2023-06-10T13:17:34;6.05;;;4.50;;
36009;SDS011;22076;52.182;5.404;2023-06-10T13:20:01;6.85;;;4.97;;
36009;SDS011;22076;52.182;5.404;2023-06-10T13:22:29;6.55;;;4.95;;
36009;SDS011;22076;52.182;5.404;2023-06-10T13:24:57;6.40;;;5.00;;
36009;SDS011;22076;52.182;5.404;2023-06-10T13:27:24;7.53;;;5.47;;
36009;SDS011;22076;52.182;5.404;2023-06-10T13:29:50;6.18;;;4.55;;
36009;SDS011;22076;52.182;5.404;2023-06-10T13:32:17;6.65;;;4.88;;
36009;SDS011;22076;52.182;5.404;2023-06-10T13:34:45;8.65;;;5.28;;
36009;SDS011;22076;52.182;5.404;2023-06-10T13:37:11;6.75;;;4.80;;
36009;SDS011;22076;52.182;5.404;2023-06-10T13:39:38;7.28;;;4.50;;
36009;SDS011;22076;52.182;5.404;2023-06-10T13:42:05;6.40;;;3.92;;
36009;SDS011;22076;52.182;5.404;2023-06-10T13:44:32;6.57;;;4.70;;
36009;SDS011;22076;52.182;5.404;2023-06-10T13:47:01;6.22;;;4.53;;
36009;SDS011;22076;52.182;5.404;2023-06-10T13:49:27;6.30;;;4.60;;
36009;SDS011;22076;52.182;5.404;2023-06-10T13:51:55;6.60;;;4.13;;
36009;SDS011;22076;52.182;5.404;2023-06-10T13:54:22;5.28;;;4.65;;
36009;SDS011;22076;52.182;5.404;2023-06-10T13:56:48;7.45;;;4.30;;
36009;SDS011;22076;52.182;5.404;2023-06-10T13:59:15;6.95;;;4.25;;
36009;SDS011;22076;52.182;5.404;2023-06-10T14:01:41;7.10;;;4.75;;
36009;SDS011;22076;52.182;5.404;2023-06-10T14:04:08;7.13;;;4.22;;
36009;SDS011;22076;52.182;5.404;2023-06-10T14:06:35;5.88;;;4.28;;
36009;SDS011;22076;52.182;5.404;2023-06-10T14:09:03;6.43;;;4.90;;
36009;SDS011;22076;52.182;5.404;2023-06-10T14:11:29;5.30;;;4.32;;
36009;SDS011;22076;52.182;5.404;2023-06-10T14:13:56;5.80;;;4.60;;
36009;SDS011;22076;52.182;5.404;2023-06-10T14:16:23;7.57;;;4.38;;
36009;SDS011;22076;52.182;5.404;2023-06-10T14:18:50;6.18;;;4.13;;
36009;SDS011;22076;52.182;5.404;2023-06-10T14:21:17;5.18;;;4.30;;
36009;SDS011;22076;52.182;5.404;2023-06-10T14:23:43;6.13;;;4.22;;
36009;SDS011;22076;52.182;5.404;2023-06-10T14:26:11;6.75;;;4.00;;
36009;SDS011;22076;52.182;5.404;2023-06-10T14:28:38;9.55;;;3.95;;
36009;SDS011;22076;52.182;5.404;2023-06-10T14:31:04;6.75;;;4.05;;
36009;SDS011;22076;52.182;5.404;2023-06-10T14:33:32;8.25;;;4.13;;
36009;SDS011;22076;52.182;5.404;2023-06-10T14:35:59;5.68;;;4.35;;
36009;SDS011;22076;52.182;5.404;2023-06-10T14:38:25;7.25;;;4.22;;
36009;SDS011;22076;52.182;5.404;2023-06-10T14:40:52;5.03;;;4.45;;
36009;SDS011;22076;52.182;5.404;2023-06-10T14:43:20;5.18;;;4.20;;
36009;SDS011;22076;52.182;5.404;2023-06-10T14:45:47;5.95;;;5.07;;
36009;SDS011;22076;52.182;5.404;2023-06-10T14:48:15;7.10;;;4.53;;
36009;SDS011;22076;52.182;5.404;2023-06-10T14:50:42;5.95;;;4.35;;
36009;SDS011;22076;52.182;5.404;2023-06-10T14:53:11;4.13;;;3.53;;
36009;SDS011;22076;52.182;5.404;2023-06-10T14:55:38;6.32;;;4.22;;
36009;SDS011;22076;52.182;5.404;2023-06-10T14:58:05;8.98;;;4.20;;